ポルト・アレグレ の空港の天気 - METARとTAF

ポルト・アレグレ国際空港 ( SBPA / POA ) - ブラジル リオグランデ・ド・スル州ポルト・アレグレ
飛行場実況気象(Metar)
観測時間04/27 01:15 BRT (04/27 04:15 UTC)
風向・風速東 4m/s
視程4000m
天気現象もや
全天の8割程度の雲 雲底高度 180m
気温22℃
湿度100%
気圧1016hPa
METARSBPA 270415Z 10007KT 4000 BR BKN006 22/22 Q1016
過去の天気等 Google飛行場航空写真 Wunderground天気予報

過去48時間のMETAR

飛行場予報(TAF)
発表時間: 4/26 18:30 BRT (4/26 21:30 UTC)
予報対象時間: 26日21時 BRT ~ 27日21時 BRT
風向・風速東 2m/s
視程10km以上
全天の4割程度の雲 雲底高度 910m
26日21時 BRT ~ 26日23時 BRT に徐々に
視程10km以上
なし
27日1時 BRT ~ 27日3時 BRT に 確率 30% で一時的に
視程4,000m
天気現象もや
全天の8割程度の雲 雲底高度 150m
TAF SBPA 262130Z 2700/2724 09004KT 9999 SCT030 TN20/2708Z TX31/2718Z
BECMG 2700/2702 CAVOK
PROB30 TEMPO 2704/2706 4000 BR BKN005
PROB30 2 706/2708 8000 FEW010 RMK PDW